sensor_id;sensor_type;location;lat;lon;timestamp;pressure;altitude;pressure_sealevel;temperature;humidity
74310;BME280;62722;51.142;17.052;2023-02-15T00:02:03;102100.06;;;1.11;86.60
74310;BME280;62722;51.142;17.052;2023-02-15T00:04:31;102110.50;;;1.19;86.85
74310;BME280;62722;51.142;17.052;2023-02-15T00:07:26;102108.75;;;1.15;86.33
74310;BME280;62722;51.142;17.052;2023-02-15T00:09:54;102108.78;;;1.18;86.14
74310;BME280;62722;51.142;17.052;2023-02-15T00:12:21;102108.78;;;1.18;85.98
74310;BME280;62722;51.142;17.052;2023-02-15T00:14:49;102105.28;;;1.16;86.13
74310;BME280;62722;51.142;17.052;2023-02-15T00:17:18;102110.50;;;1.13;86.52
74310;BME280;62722;51.142;17.052;2023-02-15T00:19:45;102105.28;;;1.07;85.82
74310;BME280;62722;51.142;17.052;2023-02-15T00:22:13;102088.81;;;1.06;86.44
74310;BME280;62722;51.142;17.052;2023-02-15T00:24:42;102094.00;;;1.02;85.80
74310;BME280;62722;51.142;17.052;2023-02-15T00:27:09;102094.84;;;0.97;85.91
74310;BME280;62722;51.142;17.052;2023-02-15T00:29:37;102089.63;;;0.90;86.21
74310;BME280;62722;51.142;17.052;2023-02-15T00:32:04;102082.66;;;0.81;86.38
74310;BME280;62722;51.142;17.052;2023-02-15T00:34:32;102082.69;;;0.84;87.08
74310;BME280;62722;51.142;17.052;2023-02-15T00:36:59;102074.84;;;0.81;86.82
74310;BME280;62722;51.142;17.052;2023-02-15T00:39:27;102080.94;;;0.80;86.76
74310;BME280;62722;51.142;17.052;2023-02-15T00:41:56;102080.06;;;0.78;86.78
74310;BME280;62722;51.142;17.052;2023-02-15T00:44:23;102073.97;;;0.75;86.29
74310;BME280;62722;51.142;17.052;2023-02-15T00:46:51;102077.44;;;0.69;86.45
74310;BME280;62722;51.142;17.052;2023-02-15T00:49:18;102083.47;;;0.62;86.71
74310;BME280;62722;51.142;17.052;2023-02-15T00:51:45;102083.44;;;0.56;86.96
74310;BME280;62722;51.142;17.052;2023-02-15T00:54:13;102083.41;;;0.44;86.96
74310;BME280;62722;51.142;17.052;2023-02-15T00:56:40;102082.47;;;0.36;87.16
74310;BME280;62722;51.142;17.052;2023-02-15T00:59:09;102077.22;;;0.27;87.61
74310;BME280;62722;51.142;17.052;2023-02-15T01:01:37;102085.84;;;0.20;87.68
74310;BME280;62722;51.142;17.052;2023-02-15T01:04:05;102089.28;;;0.16;88.66
74310;BME280;62722;51.142;17.052;2023-02-15T01:06:32;102092.72;;;0.12;88.81
74310;BME280;62722;51.142;17.052;2023-02-15T01:09:00;102084.88;;;0.03;88.66
74310;BME280;62722;51.142;17.052;2023-02-15T01:11:28;102086.53;;;-0.07;89.47
74310;BME280;62722;51.142;17.052;2023-02-15T01:13:57;102088.25;;;-0.11;89.58
74310;BME280;62722;51.142;17.052;2023-02-15T01:16:27;102091.72;;;-0.09;89.92
74310;BME280;62722;51.142;17.052;2023-02-15T01:18:56;102084.84;;;-0.05;89.71
74310;BME280;62722;51.142;17.052;2023-02-15T01:21:25;102074.47;;;-0.02;89.59
74310;BME280;62722;51.142;17.052;2023-02-15T01:23:53;102077.06;;;-0.02;89.15
74310;BME280;62722;51.142;17.052;2023-02-15T01:26:20;102071.91;;;-0.01;89.19
74310;BME280;62722;51.142;17.052;2023-02-15T01:28:48;102069.28;;;-0.02;88.51
74310;BME280;62722;51.142;17.052;2023-02-15T01:31:18;102059.69;;;-0.14;88.34
74310;BME280;62722;51.142;17.052;2023-02-15T01:33:48;102059.66;;;-0.17;89.04
74310;BME280;62722;51.142;17.052;2023-02-15T01:36:16;102055.38;;;-0.10;89.47
74310;BME280;62722;51.142;17.052;2023-02-15T01:38:44;102045.88;;;-0.07;88.86
74310;BME280;62722;51.142;17.052;2023-02-15T01:41:11;102045.06;;;-0.04;88.67
74310;BME280;62722;51.142;17.052;2023-02-15T01:43:50;102039.00;;;-0.05;88.29
74310;BME280;62722;51.142;17.052;2023-02-15T01:46:19;102049.31;;;-0.15;88.14
74310;BME280;62722;51.142;17.052;2023-02-15T01:48:51;102038.91;;;-0.17;88.58
74310;BME280;62722;51.142;17.052;2023-02-15T01:51:19;102044.97;;;-0.15;88.95
74310;BME280;62722;51.142;17.052;2023-02-15T01:53:51;102034.56;;;-0.18;88.57
74310;BME280;62722;51.142;17.052;2023-02-15T01:56:23;102033.69;;;-0.23;89.04
74310;BME280;62722;51.142;17.052;2023-02-15T01:58:53;102026.75;;;-0.24;89.32
74310;BME280;62722;51.142;17.052;2023-02-15T02:01:25;102025.03;;;-0.22;89.49
74310;BME280;62722;51.142;17.052;2023-02-15T02:03:57;102024.13;;;-0.28;89.46
74310;BME280;62722;51.142;17.052;2023-02-15T02:06:26;102025.84;;;-0.30;89.89
74310;BME280;62722;51.142;17.052;2023-02-15T02:08:54;102026.66;;;-0.36;89.90
74310;BME280;62722;51.142;17.052;2023-02-15T02:11:22;102017.91;;;-0.50;90.73
74310;BME280;62722;51.142;17.052;2023-02-15T02:13:51;102021.31;;;-0.60;91.50
74310;BME280;62722;51.142;17.052;2023-02-15T02:16:23;102010.03;;;-0.62;91.73
74310;BME280;62722;51.142;17.052;2023-02-15T02:19:22;102015.22;;;-0.64;91.30
74310;BME280;62722;51.142;17.052;2023-02-15T02:22:13;102015.22;;;-0.64;91.79
74310;BME280;62722;51.142;17.052;2023-02-15T02:25:06;102007.44;;;-0.62;91.84
74310;BME280;62722;51.142;17.052;2023-02-15T02:27:41;102004.88;;;-0.58;91.33
74310;BME280;62722;51.142;17.052;2023-02-15T02:30:33;102001.44;;;-0.57;91.43
74310;BME280;62722;51.142;17.052;2023-02-15T02:33:25;101991.06;;;-0.60;91.23
74310;BME280;62722;51.142;17.052;2023-02-15T02:36:08;101984.97;;;-0.63;91.70
74310;BME280;62722;51.142;17.052;2023-02-15T02:38:46;101983.22;;;-0.67;91.92
74310;BME280;62722;51.142;17.052;2023-02-15T02:41:23;101975.44;;;-0.70;91.99
74310;BME280;62722;51.142;17.052;2023-02-15T02:44:01;101983.22;;;-0.70;92.09
74310;BME280;62722;51.142;17.052;2023-02-15T02:46:35;101960.69;;;-0.73;92.32
74310;BME280;62722;51.142;17.052;2023-02-15T02:49:05;101958.03;;;-0.80;92.97
74310;BME280;62722;51.142;17.052;2023-02-15T02:51:33;101974.50;;;-0.78;93.41
74310;BME280;62722;51.142;17.052;2023-02-15T02:54:03;101969.31;;;-0.78;93.86
74310;BME280;62722;51.142;17.052;2023-02-15T02:56:33;101968.44;;;-0.77;94.10
74310;BME280;62722;51.142;17.052;2023-02-15T02:59:02;101962.41;;;-0.73;94.24
74310;BME280;62722;51.142;17.052;2023-02-15T03:01:33;101954.66;;;-0.72;94.08
74310;BME280;62722;51.142;17.052;2023-02-15T03:04:05;101967.72;;;-0.58;93.89
74310;BME280;62722;51.142;17.052;2023-02-15T03:06:38;101967.81;;;-0.44;93.46
74310;BME280;62722;51.142;17.052;2023-02-15T03:09:11;101962.63;;;-0.43;93.27
74310;BME280;62722;51.142;17.052;2023-02-15T03:11:48;101959.19;;;-0.42;92.98
74310;BME280;62722;51.142;17.052;2023-02-15T03:14:18;101955.75;;;-0.38;92.85
74310;BME280;62722;51.142;17.052;2023-02-15T03:16:47;101956.66;;;-0.28;92.25
74310;BME280;62722;51.142;17.052;2023-02-15T03:19:17;101954.91;;;-0.34;92.34
74310;BME280;62722;51.142;17.052;2023-02-15T03:21:49;101958.34;;;-0.36;92.73
74310;BME280;62722;51.142;17.052;2023-02-15T03:24:26;101967.00;;;-0.37;92.62
74310;BME280;62722;51.142;17.052;2023-02-15T03:26:56;101960.94;;;-0.38;92.37
74310;BME280;62722;51.142;17.052;2023-02-15T03:29:25;101960.97;;;-0.32;92.51
74310;BME280;62722;51.142;17.052;2023-02-15T03:31:58;101962.66;;;-0.37;92.38
74310;BME280;62722;51.142;17.052;2023-02-15T03:34:28;101954.84;;;-0.44;92.41
74310;BME280;62722;51.142;17.052;2023-02-15T03:36:59;101957.44;;;-0.46;93.10
74310;BME280;62722;51.142;17.052;2023-02-15T03:39:32;101947.88;;;-0.52;92.99
74310;BME280;62722;51.142;17.052;2023-02-15T03:42:08;101946.97;;;-0.55;93.28
74310;BME280;62722;51.142;17.052;2023-02-15T03:44:46;101955.59;;;-0.59;93.61
74310;BME280;62722;51.142;17.052;2023-02-15T03:47:18;101951.28;;;-0.63;94.13
74310;BME280;62722;51.142;17.052;2023-02-15T03:49:51;101946.97;;;-0.55;93.84
74310;BME280;62722;51.142;17.052;2023-02-15T03:52:21;101947.03;;;-0.52;93.50
74310;BME280;62722;51.142;17.052;2023-02-15T03:54:49;101954.78;;;-0.54;93.23
74310;BME280;62722;51.142;17.052;2023-02-15T03:57:19;101949.63;;;-0.52;93.37
74310;BME280;62722;51.142;17.052;2023-02-15T04:00:09;101954.00;;;-0.45;93.11
74310;BME280;62722;51.142;17.052;2023-02-15T04:03:07;101954.81;;;-0.49;93.04
74310;BME280;62722;51.142;17.052;2023-02-15T04:05:37;101939.22;;;-0.57;93.42
74310;BME280;62722;51.142;17.052;2023-02-15T04:08:05;101952.13;;;-0.61;93.18
74310;BME280;62722;51.142;17.052;2023-02-15T04:10:32;101952.13;;;-0.61;93.43
74310;BME280;62722;51.142;17.052;2023-02-15T04:13:17;101940.91;;;-0.63;93.42
74310;BME280;62722;51.142;17.052;2023-02-15T04:15:44;101942.69;;;-0.52;93.89
74310;BME280;62722;51.142;17.052;2023-02-15T04:18:29;101941.00;;;-0.46;93.41
74310;BME280;62722;51.142;17.052;2023-02-15T04:21:15;101926.34;;;-0.41;92.95
74310;BME280;62722;51.142;17.052;2023-02-15T04:24:00;101928.97;;;-0.35;91.95
74310;BME280;62722;51.142;17.052;2023-02-15T04:26:44;101925.47;;;-0.39;91.74
74310;BME280;62722;51.142;17.052;2023-02-15T04:29:14;101934.13;;;-0.37;91.20
74310;BME280;62722;51.142;17.052;2023-02-15T04:31:41;101932.38;;;-0.39;90.93
74310;BME280;62722;51.142;17.052;2023-02-15T04:34:10;101929.75;;;-0.48;91.41
74310;BME280;62722;51.142;17.052;2023-02-15T04:36:39;101932.31;;;-0.53;91.54
74310;BME280;62722;51.142;17.052;2023-02-15T04:39:07;101927.97;;;-0.57;92.53
74310;BME280;62722;51.142;17.052;2023-02-15T04:41:34;101929.66;;;-0.62;92.61
74310;BME280;62722;51.142;17.052;2023-02-15T04:44:03;101919.25;;;-0.68;93.23
74310;BME280;62722;51.142;17.052;2023-02-15T04:46:30;101922.69;;;-0.72;93.58
74310;BME280;62722;51.142;17.052;2023-02-15T04:48:58;101920.91;;;-0.76;93.47
74310;BME280;62722;51.142;17.052;2023-02-15T04:51:25;101928.66;;;-0.81;93.77
74310;BME280;62722;51.142;17.052;2023-02-15T04:53:54;101928.59;;;-0.88;93.89
74310;BME280;62722;51.142;17.052;2023-02-15T04:56:22;101926.88;;;-0.92;93.91
74310;BME280;62722;51.142;17.052;2023-02-15T04:58:49;101936.38;;;-0.93;94.20
74310;BME280;62722;51.142;17.052;2023-02-15T05:01:17;101929.47;;;-0.89;94.14
74310;BME280;62722;51.142;17.052;2023-02-15T05:03:45;101935.53;;;-0.87;94.21
74310;BME280;62722;51.142;17.052;2023-02-15T05:06:12;101937.25;;;-0.89;94.15
74310;BME280;62722;51.142;17.052;2023-02-15T05:08:39;101939.81;;;-0.92;94.12
74310;BME280;62722;51.142;17.052;2023-02-15T05:11:08;101940.66;;;-0.96;93.86
74310;BME280;62722;51.142;17.052;2023-02-15T05:13:36;101932.97;;;-0.86;94.67
74310;BME280;62722;51.142;17.052;2023-02-15T05:16:03;101931.28;;;-0.79;94.03
74310;BME280;62722;51.142;17.052;2023-02-15T05:18:31;101925.25;;;-0.74;93.74
74310;BME280;62722;51.142;17.052;2023-02-15T05:20:58;101918.38;;;-0.69;92.84
74310;BME280;62722;51.142;17.052;2023-02-15T05:23:25;101926.19;;;-0.67;92.75
74310;BME280;62722;51.142;17.052;2023-02-15T05:25:52;101920.16;;;-0.63;92.43
74310;BME280;62722;51.142;17.052;2023-02-15T05:28:39;101919.25;;;-0.68;92.29
74310;BME280;62722;51.142;17.052;2023-02-15T05:31:07;101916.63;;;-0.73;92.75
74310;BME280;62722;51.142;17.052;2023-02-15T05:33:37;101918.28;;;-0.85;92.72
74310;BME280;62722;51.142;17.052;2023-02-15T05:36:05;101919.91;;;-0.98;93.64
74310;BME280;62722;51.142;17.052;2023-02-15T05:38:33;101915.50;;;-1.08;94.03
74310;BME280;62722;51.142;17.052;2023-02-15T05:41:02;101912.00;;;-1.10;94.50
74310;BME280;62722;51.142;17.052;2023-02-15T05:43:30;101914.63;;;-1.12;94.36
74310;BME280;62722;51.142;17.052;2023-02-15T05:45:59;101912.91;;;-1.11;94.35
74310;BME280;62722;51.142;17.052;2023-02-15T05:48:27;101909.44;;;-1.10;94.24
74310;BME280;62722;51.142;17.052;2023-02-15T05:50:59;101914.56;;;-1.16;94.39
74310;BME280;62722;51.142;17.052;2023-02-15T05:53:27;101914.56;;;-1.16;94.52
74310;BME280;62722;51.142;17.052;2023-02-15T05:55:54;101903.34;;;-1.14;94.60
74310;BME280;62722;51.142;17.052;2023-02-15T05:58:25;101912.91;;;-1.08;94.36
74310;BME280;62722;51.142;17.052;2023-02-15T06:00:53;101910.28;;;-1.13;94.24
74310;BME280;62722;51.142;17.052;2023-02-15T06:03:22;101916.25;;;-1.18;94.71
74310;BME280;62722;51.142;17.052;2023-02-15T06:05:51;101926.59;;;-1.23;94.43
74310;BME280;62722;51.142;17.052;2023-02-15T06:08:19;101914.50;;;-1.24;94.61
74310;BME280;62722;51.142;17.052;2023-02-15T06:10:46;101918.84;;;-1.23;94.73
74310;BME280;62722;51.142;17.052;2023-02-15T06:13:13;101915.38;;;-1.23;94.47
74310;BME280;62722;51.142;17.052;2023-02-15T06:15:41;101917.97;;;-1.22;94.76
74310;BME280;62722;51.142;17.052;2023-02-15T06:18:08;101920.53;;;-1.25;94.56
74310;BME280;62722;51.142;17.052;2023-02-15T06:20:37;101921.38;;;-1.27;94.76
74310;BME280;62722;51.142;17.052;2023-02-15T06:23:05;101926.53;;;-1.30;95.19
74310;BME280;62722;51.142;17.052;2023-02-15T06:25:32;101923.91;;;-1.32;95.11
74310;BME280;62722;51.142;17.052;2023-02-15T06:27:59;101929.09;;;-1.32;95.41
74310;BME280;62722;51.142;17.052;2023-02-15T06:30:26;101932.53;;;-1.33;95.43
74310;BME280;62722;51.142;17.052;2023-02-15T06:32:54;101936.00;;;-1.32;95.68
74310;BME280;62722;51.142;17.052;2023-02-15T06:35:21;101930.00;;;-1.30;95.33
74310;BME280;62722;51.142;17.052;2023-02-15T06:37:50;101929.13;;;-1.29;95.57
74310;BME280;62722;51.142;17.052;2023-02-15T06:40:17;101923.06;;;-1.31;95.64
74310;BME280;62722;51.142;17.052;2023-02-15T06:42:45;101927.44;;;-1.24;95.58
74310;BME280;62722;51.142;17.052;2023-02-15T06:45:12;101911.94;;;-1.22;95.74
74310;BME280;62722;51.142;17.052;2023-02-15T06:47:40;101930.97;;;-1.16;95.79
74310;BME280;62722;51.142;17.052;2023-02-15T06:50:08;101918.03;;;-1.16;95.44
74310;BME280;62722;51.142;17.052;2023-02-15T06:52:36;101918.91;;;-1.11;95.33
74310;BME280;62722;51.142;17.052;2023-02-15T06:55:05;101929.34;;;-1.08;95.64
74310;BME280;62722;51.142;17.052;2023-02-15T06:57:33;101931.94;;;-1.05;95.56
74310;BME280;62722;51.142;17.052;2023-02-15T07:00:00;101922.44;;;-1.03;95.14
74310;BME280;62722;51.142;17.052;2023-02-15T07:02:30;101920.78;;;-0.98;95.39
74310;BME280;62722;51.142;17.052;2023-02-15T07:04:58;101921.69;;;-0.92;95.43
74310;BME280;62722;51.142;17.052;2023-02-15T07:07:25;101918.22;;;-0.91;95.62
74310;BME280;62722;51.142;17.052;2023-02-15T07:09:52;101917.38;;;-0.87;95.27
74310;BME280;62722;51.142;17.052;2023-02-15T07:12:21;101907.09;;;-0.78;95.49
74310;BME280;62722;51.142;17.052;2023-02-15T07:15:06;101910.59;;;-0.70;95.59
74310;BME280;62722;51.142;17.052;2023-02-15T07:17:35;101895.94;;;-0.62;95.69
74310;BME280;62722;51.142;17.052;2023-02-15T07:20:04;101898.59;;;-0.56;95.28
74310;BME280;62722;51.142;17.052;2023-02-15T07:22:34;101891.69;;;-0.48;95.62
74310;BME280;62722;51.142;17.052;2023-02-15T07:25:02;101896.94;;;-0.42;95.11
74310;BME280;62722;51.142;17.052;2023-02-15T07:27:31;101887.44;;;-0.35;94.93
74310;BME280;62722;51.142;17.052;2023-02-15T07:29:59;101884.91;;;-0.28;94.64
74310;BME280;62722;51.142;17.052;2023-02-15T07:32:28;101892.72;;;-0.19;94.62
74310;BME280;62722;51.142;17.052;2023-02-15T07:34:56;101892.75;;;-0.16;94.53
74310;BME280;62722;51.142;17.052;2023-02-15T07:37:23;101897.09;;;-0.09;94.52
74310;BME280;62722;51.142;17.052;2023-02-15T07:39:51;101901.44;;;-0.02;94.61
74310;BME280;62722;51.142;17.052;2023-02-15T07:42:18;101891.06;;;0.05;94.58
74310;BME280;62722;51.142;17.052;2023-02-15T07:44:49;101886.78;;;0.13;94.03
74310;BME280;62722;51.142;17.052;2023-02-15T07:47:16;101878.13;;;0.17;94.13
74310;BME280;62722;51.142;17.052;2023-02-15T07:49:45;101879.88;;;0.21;94.14
74310;BME280;62722;51.142;17.052;2023-02-15T07:52:14;101879.88;;;0.27;94.07
74310;BME280;62722;51.142;17.052;2023-02-15T07:54:42;101872.09;;;0.30;94.18
74310;BME280;62722;51.142;17.052;2023-02-15T07:57:09;101866.03;;;0.34;94.04
74310;BME280;62722;51.142;17.052;2023-02-15T07:59:37;101855.69;;;0.37;94.07
74310;BME280;62722;51.142;17.052;2023-02-15T08:02:08;101865.19;;;0.39;93.85
74310;BME280;62722;51.142;17.052;2023-02-15T08:04:36;101866.06;;;0.41;93.75
74310;BME280;62722;51.142;17.052;2023-02-15T08:07:05;101860.00;;;0.47;93.29
74310;BME280;62722;51.142;17.052;2023-02-15T08:09:32;101867.81;;;0.50;93.46
74310;BME280;62722;51.142;17.052;2023-02-15T08:12:00;101863.47;;;0.54;93.75
74310;BME280;62722;51.142;17.052;2023-02-15T08:14:28;101860.00;;;0.61;93.09
74310;BME280;62722;51.142;17.052;2023-02-15T08:16:55;101863.47;;;0.64;92.93
74310;BME280;62722;51.142;17.052;2023-02-15T08:19:31;101856.53;;;0.68;93.41
74310;BME280;62722;51.142;17.052;2023-02-15T08:22:00;101857.41;;;0.68;93.07
74310;BME280;62722;51.142;17.052;2023-02-15T08:24:29;101854.81;;;0.71;93.12
74310;BME280;62722;51.142;17.052;2023-02-15T08:26:57;101847.03;;;0.77;93.12
74310;BME280;62722;51.142;17.052;2023-02-15T08:29:26;101841.81;;;0.83;93.26
74310;BME280;62722;51.142;17.052;2023-02-15T08:32:00;101841.81;;;0.88;92.78
74310;BME280;62722;51.142;17.052;2023-02-15T08:34:32;101836.59;;;0.92;92.78
74310;BME280;62722;51.142;17.052;2023-02-15T08:37:00;101833.13;;;0.96;92.78
74310;BME280;62722;51.142;17.052;2023-02-15T08:39:27;101828.78;;;1.00;92.03
74310;BME280;62722;51.142;17.052;2023-02-15T08:41:55;101825.34;;;1.06;91.65
74310;BME280;62722;51.142;17.052;2023-02-15T08:44:23;101826.19;;;1.09;91.53
74310;BME280;62722;51.142;17.052;2023-02-15T08:46:50;101828.78;;;1.18;90.75
74310;BME280;62722;51.142;17.052;2023-02-15T08:49:19;101831.34;;;1.26;90.32
74310;BME280;62722;51.142;17.052;2023-02-15T08:51:49;101820.06;;;1.31;90.11
74310;BME280;62722;51.142;17.052;2023-02-15T08:54:19;101819.16;;;1.37;89.94
74310;BME280;62722;51.142;17.052;2023-02-15T08:56:47;101826.09;;;1.44;89.19
74310;BME280;62722;51.142;17.052;2023-02-15T08:59:16;101821.72;;;1.57;89.04
74310;BME280;62722;51.142;17.052;2023-02-15T09:01:45;101823.44;;;1.61;88.33
74310;BME280;62722;51.142;17.052;2023-02-15T09:04:13;101820.84;;;1.62;88.23
74310;BME280;62722;51.142;17.052;2023-02-15T09:06:42;101819.06;;;1.67;88.41
74310;BME280;62722;51.142;17.052;2023-02-15T09:09:12;101819.03;;;1.70;88.29
74310;BME280;62722;51.142;17.052;2023-02-15T09:11:41;101806.03;;;1.73;87.86
74310;BME280;62722;51.142;17.052;2023-02-15T09:14:11;101812.06;;;1.78;87.37
74310;BME280;62722;51.142;17.052;2023-02-15T09:16:40;101805.13;;;1.79;86.71
74310;BME280;62722;51.142;17.052;2023-02-15T09:19:08;101805.06;;;1.89;85.25
74310;BME280;62722;51.142;17.052;2023-02-15T09:21:37;101804.13;;;2.00;85.10
74310;BME280;62722;51.142;17.052;2023-02-15T09:24:06;101800.63;;;2.05;84.61
74310;BME280;62722;51.142;17.052;2023-02-15T09:26:38;101803.16;;;2.16;83.98
74310;BME280;62722;51.142;17.052;2023-02-15T09:29:07;101799.66;;;2.20;83.54
74310;BME280;62722;51.142;17.052;2023-02-15T09:31:38;101802.28;;;2.21;83.67
74310;BME280;62722;51.142;17.052;2023-02-15T09:34:07;101786.63;;;2.24;83.69
74310;BME280;62722;51.142;17.052;2023-02-15T09:36:35;101801.22;;;2.45;83.03
74310;BME280;62722;51.142;17.052;2023-02-15T09:39:06;101783.75;;;2.56;82.58
74310;BME280;62722;51.142;17.052;2023-02-15T09:42:20;101782.00;;;2.55;83.00
74310;BME280;62722;51.142;17.052;2023-02-15T09:45:14;101783.66;;;2.68;83.09
74310;BME280;62722;51.142;17.052;2023-02-15T09:48:05;101788.75;;;2.79;83.01
74310;BME280;62722;51.142;17.052;2023-02-15T09:50:39;101790.47;;;2.84;82.96
74310;BME280;62722;51.142;17.052;2023-02-15T09:53:26;101788.59;;;2.92;82.99
74310;BME280;62722;51.142;17.052;2023-02-15T09:56:05;101789.38;;;3.05;82.59
74310;BME280;62722;51.142;17.052;2023-02-15T09:58:45;101776.25;;;3.11;82.96
74310;BME280;62722;51.142;17.052;2023-02-15T10:01:19;101778.81;;;3.14;82.92
74310;BME280;62722;51.142;17.052;2023-02-15T10:03:57;101773.63;;;3.13;82.88
74310;BME280;62722;51.142;17.052;2023-02-15T10:06:32;101771.81;;;3.19;82.83
74310;BME280;62722;51.142;17.052;2023-02-15T10:12:15;101771.44;;;3.48;81.42
74310;BME280;62722;51.142;17.052;2023-02-15T10:17:49;101760.75;;;3.68;81.06
74310;BME280;62722;51.142;17.052;2023-02-15T10:20:25;101765.16;;;3.64;80.73
74310;BME280;62722;51.142;17.052;2023-02-15T10:23:09;101746.78;;;3.72;80.61
74310;BME280;62722;51.142;17.052;2023-02-15T10:25:43;101753.69;;;3.74;80.72
74310;BME280;62722;51.142;17.052;2023-02-15T10:28:16;101749.25;;;3.82;79.69
74310;BME280;62722;51.142;17.052;2023-02-15T10:30:49;101751.72;;;3.91;79.56
74310;BME280;62722;51.142;17.052;2023-02-15T10:33:31;101744.91;;;3.81;79.92
74310;BME280;62722;51.142;17.052;2023-02-15T10:36:11;101744.00;;;3.82;79.35
74310;BME280;62722;51.142;17.052;2023-02-15T10:38:48;101738.84;;;3.78;80.06
74310;BME280;62722;51.142;17.052;2023-02-15T10:41:27;101742.22;;;3.84;79.82
74310;BME280;62722;51.142;17.052;2023-02-15T10:44:10;101727.25;;;3.96;79.52
74310;BME280;62722;51.142;17.052;2023-02-15T10:47:06;101733.31;;;3.99;79.22
74310;BME280;62722;51.142;17.052;2023-02-15T10:49:52;101730.66;;;4.02;79.06
74310;BME280;62722;51.142;17.052;2023-02-15T10:52:31;101725.34;;;4.08;78.32
74310;BME280;62722;51.142;17.052;2023-02-15T10:55:08;101716.63;;;4.08;78.48
74310;BME280;62722;51.142;17.052;2023-02-15T10:57:46;101715.69;;;4.12;78.50
74310;BME280;62722;51.142;17.052;2023-02-15T11:00:19;101707.84;;;4.13;77.82
74310;BME280;62722;51.142;17.052;2023-02-15T11:03:04;101713.16;;;4.09;78.68
74310;BME280;62722;51.142;17.052;2023-02-15T11:05:43;101705.44;;;4.00;79.08
74310;BME280;62722;51.142;17.052;2023-02-15T11:08:15;101705.47;;;3.98;78.38
74310;BME280;62722;51.142;17.052;2023-02-15T11:10:47;101707.16;;;4.01;78.80
74310;BME280;62722;51.142;17.052;2023-02-15T11:13:18;101695.81;;;4.03;78.84
74310;BME280;62722;51.142;17.052;2023-02-15T11:15:49;101690.44;;;4.12;78.04
74310;BME280;62722;51.142;17.052;2023-02-15T11:18:24;101677.19;;;4.24;77.04
74310;BME280;62722;51.142;17.052;2023-02-15T11:20:56;101676.31;;;4.24;75.72
74310;BME280;62722;51.142;17.052;2023-02-15T11:23:25;101673.53;;;4.33;75.04
74310;BME280;62722;51.142;17.052;2023-02-15T11:25:58;101672.56;;;4.38;75.67
74310;BME280;62722;51.142;17.052;2023-02-15T11:28:30;101675.13;;;4.40;76.03
74310;BME280;62722;51.142;17.052;2023-02-15T11:31:02;101662.84;;;4.45;75.33
74310;BME280;62722;51.142;17.052;2023-02-15T11:33:42;101667.16;;;4.49;76.10
74310;BME280;62722;51.142;17.052;2023-02-15T11:36:15;101670.63;;;4.48;75.73
74310;BME280;62722;51.142;17.052;2023-02-15T11:38:44;101671.50;;;4.50;75.72
74310;BME280;62722;51.142;17.052;2023-02-15T11:41:16;101660.97;;;4.53;75.71
74310;BME280;62722;51.142;17.052;2023-02-15T11:43:50;101658.31;;;4.55;75.57
74310;BME280;62722;51.142;17.052;2023-02-15T11:46:21;101659.16;;;4.57;75.62
74310;BME280;62722;51.142;17.052;2023-02-15T11:48:50;101645.22;;;4.58;74.85
74310;BME280;62722;51.142;17.052;2023-02-15T11:51:20;101644.50;;;4.48;76.22
74310;BME280;62722;51.142;17.052;2023-02-15T11:53:49;101628.06;;;4.41;76.70
74310;BME280;62722;51.142;17.052;2023-02-15T11:56:20;101636.56;;;4.54;74.61
74310;BME280;62722;51.142;17.052;2023-02-15T11:58:52;101630.56;;;4.48;75.56
74310;BME280;62722;51.142;17.052;2023-02-15T12:01:27;101634.94;;;4.47;75.72
74310;BME280;62722;51.142;17.052;2023-02-15T12:03:59;101628.84;;;4.47;76.50
74310;BME280;62722;51.142;17.052;2023-02-15T12:06:33;101625.13;;;4.58;75.94
74310;BME280;62722;51.142;17.052;2023-02-15T12:09:05;101629.09;;;4.77;75.16
74310;BME280;62722;51.142;17.052;2023-02-15T12:11:36;101621.94;;;4.87;74.32
74310;BME280;62722;51.142;17.052;2023-02-15T12:14:05;101621.16;;;4.83;74.29
74310;BME280;62722;51.142;17.052;2023-02-15T12:16:40;101619.41;;;4.82;74.54
74310;BME280;62722;51.142;17.052;2023-02-15T12:19:36;101612.31;;;4.89;74.28
74310;BME280;62722;51.142;17.052;2023-02-15T12:22:06;101621.84;;;4.91;74.70
74310;BME280;62722;51.142;17.052;2023-02-15T12:24:44;101619.41;;;4.82;74.82
74310;BME280;62722;51.142;17.052;2023-02-15T12:27:15;101614.16;;;4.84;74.93
74310;BME280;62722;51.142;17.052;2023-02-15T12:29:47;101612.34;;;4.87;75.28
74310;BME280;62722;51.142;17.052;2023-02-15T12:32:21;101608.81;;;4.90;75.17
74310;BME280;62722;51.142;17.052;2023-02-15T12:34:51;101600.88;;;4.95;75.42
74310;BME280;62722;51.142;17.052;2023-02-15T12:37:23;101606.03;;;4.98;75.36
74310;BME280;62722;51.142;17.052;2023-02-15T12:39:54;101600.66;;;5.04;75.05
74310;BME280;62722;51.142;17.052;2023-02-15T12:42:23;101601.41;;;5.09;75.17
74310;BME280;62722;51.142;17.052;2023-02-15T12:44:56;101592.88;;;5.01;75.02
74310;BME280;62722;51.142;17.052;2023-02-15T12:47:24;101598.13;;;4.99;75.26
74310;BME280;62722;51.142;17.052;2023-02-15T12:50:08;101590.25;;;5.01;75.01
74310;BME280;62722;51.142;17.052;2023-02-15T12:52:43;101590.25;;;5.01;75.16
74310;BME280;62722;51.142;17.052;2023-02-15T12:55:19;101581.59;;;4.99;75.18
74310;BME280;62722;51.142;17.052;2023-02-15T12:57:48;101582.44;;;4.99;75.15
74310;BME280;62722;51.142;17.052;2023-02-15T13:00:27;101583.22;;;5.03;75.40
74310;BME280;62722;51.142;17.052;2023-02-15T13:02:58;101571.69;;;5.11;74.28
74310;BME280;62722;51.142;17.052;2023-02-15T13:05:31;101567.25;;;5.15;73.97
74310;BME280;62722;51.142;17.052;2023-02-15T13:08:02;101568.97;;;5.17;75.05
74310;BME280;62722;51.142;17.052;2023-02-15T13:10:33;101564.53;;;5.19;74.78
74310;BME280;62722;51.142;17.052;2023-02-15T13:13:09;101564.56;;;5.18;75.44
74310;BME280;62722;51.142;17.052;2023-02-15T13:15:39;101570.59;;;5.21;75.65